createdAt,value
2022-10-31T00:01:32.951Z,79.92
2022-10-31T00:03:59.620Z,79.89
2022-10-31T00:06:26.559Z,79.95
2022-10-31T00:08:55.492Z,79.85
2022-10-31T00:11:24.060Z,79.79
2022-10-31T00:13:50.740Z,79.97
2022-10-31T00:16:18.487Z,79.93
2022-10-31T00:18:48.508Z,79.82
2022-10-31T00:21:15.645Z,79.68
2022-10-31T00:23:42.193Z,80.00
2022-10-31T00:26:08.917Z,79.68
2022-10-31T00:28:36.923Z,79.89
2022-10-31T00:31:05.034Z,79.74
2022-10-31T00:33:33.789Z,79.86
2022-10-31T00:36:00.416Z,79.60
2022-10-31T00:38:27.019Z,79.50
2022-10-31T00:40:53.540Z,79.28
2022-10-31T00:43:20.026Z,79.34
2022-10-31T00:45:48.078Z,79.34
2022-10-31T00:48:14.598Z,79.61
2022-10-31T00:50:43.133Z,79.48
2022-10-31T00:53:09.601Z,79.63
2022-10-31T00:55:36.140Z,79.89
2022-10-31T00:58:03.175Z,79.85
2022-10-31T01:00:30.089Z,79.98
2022-10-31T01:02:58.129Z,80.14
2022-10-31T01:05:24.999Z,79.71
2022-10-31T01:07:51.494Z,79.85
2022-10-31T01:10:18.708Z,79.87
2022-10-31T01:12:47.253Z,79.86
2022-10-31T01:15:17.008Z,79.90
2022-10-31T01:17:43.641Z,80.05
2022-10-31T01:20:13.654Z,79.86
2022-10-31T01:22:40.167Z,79.81
2022-10-31T01:25:08.484Z,79.85
2022-10-31T01:27:35.361Z,80.06
2022-10-31T01:30:02.289Z,80.05
2022-10-31T01:32:29.002Z,80.21
2022-10-31T01:34:55.562Z,80.11
2022-10-31T01:37:23.577Z,80.11
2022-10-31T01:39:50.184Z,79.92
2022-10-31T01:42:20.105Z,80.04
2022-10-31T01:44:56.373Z,79.87
2022-10-31T01:47:32.118Z,80.82
2022-10-31T01:50:03.441Z,80.88
2022-10-31T01:52:37.197Z,81.10
2022-10-31T01:55:08.797Z,80.92
2022-10-31T01:57:37.918Z,81.05
2022-10-31T02:00:09.169Z,81.80
2022-10-31T02:02:36.440Z,80.96
2022-10-31T02:05:06.854Z,80.74
2022-10-31T02:07:39.466Z,80.79
2022-10-31T02:10:06.494Z,80.75
2022-10-31T02:12:34.975Z,80.54
2022-10-31T02:15:01.916Z,80.17
2022-10-31T02:17:30.604Z,80.27
2022-10-31T02:20:05.982Z,80.57
2022-10-31T02:22:44.948Z,80.21
2022-10-31T02:25:38.780Z,79.95
2022-10-31T02:28:25.775Z,80.43
2022-10-31T02:31:04.539Z,80.32
2022-10-31T02:33:36.224Z,80.11
2022-10-31T02:36:10.948Z,80.08
2022-10-31T02:38:50.696Z,80.35
2022-10-31T02:41:26.139Z,80.32
2022-10-31T02:44:02.452Z,80.11
2022-10-31T02:46:35.369Z,80.04
2022-10-31T02:49:08.561Z,79.84
2022-10-31T02:51:35.713Z,79.84
2022-10-31T02:54:02.369Z,79.98
2022-10-31T02:56:28.984Z,79.87
2022-10-31T02:59:01.299Z,80.30
2022-10-31T03:01:44.331Z,80.29
2022-10-31T03:04:24.651Z,80.24
2022-10-31T03:06:59.468Z,80.24
2022-10-31T03:09:33.158Z,80.48
2022-10-31T03:12:08.445Z,80.40
2022-10-31T03:14:42.039Z,80.86
2022-10-31T03:17:18.403Z,80.96
2022-10-31T03:19:49.005Z,80.49
2022-10-31T03:22:18.657Z,80.92
2022-10-31T03:24:47.635Z,81.20
2022-10-31T03:27:18.471Z,81.18
2022-10-31T03:29:46.463Z,81.02
2022-10-31T03:32:18.770Z,81.07
2022-10-31T03:34:47.058Z,80.58
2022-10-31T03:37:20.192Z,80.99
2022-10-31T03:39:48.815Z,81.26
2022-10-31T03:42:18.720Z,81.00
2022-10-31T03:44:49.772Z,80.96
2022-10-31T03:47:17.939Z,81.31
2022-10-31T03:49:44.751Z,80.90
2022-10-31T03:52:25.448Z,81.01
2022-10-31T03:54:56.732Z,81.03
2022-10-31T03:57:28.111Z,81.15
2022-10-31T03:59:59.543Z,81.05
2022-10-31T04:02:33.082Z,80.72
2022-10-31T04:05:00.620Z,81.01
2022-10-31T04:07:31.978Z,81.13
2022-10-31T04:10:01.139Z,81.33
2022-10-31T04:12:30.559Z,81.26
2022-10-31T04:14:58.193Z,81.12
2022-10-31T04:17:30.498Z,81.46
2022-10-31T04:20:00.207Z,81.72
2022-10-31T04:22:26.847Z,81.71
2022-10-31T04:24:53.298Z,81.97
2022-10-31T04:27:19.916Z,82.17
2022-10-31T04:29:48.332Z,81.92
2022-10-31T04:32:17.282Z,81.80
2022-10-31T04:34:45.352Z,81.57
2022-10-31T04:37:11.972Z,81.33
2022-10-31T04:39:38.465Z,81.36
2022-10-31T04:42:05.179Z,81.62
2022-10-31T04:44:31.649Z,81.75
2022-10-31T04:46:58.163Z,81.88
2022-10-31T04:49:24.688Z,81.65
2022-10-31T04:51:52.702Z,82.28
2022-10-31T04:54:19.221Z,81.20
2022-10-31T04:56:45.680Z,81.62
2022-10-31T04:59:12.199Z,81.56
2022-10-31T05:01:38.945Z,81.45
2022-10-31T05:04:05.502Z,81.62
2022-10-31T05:06:32.055Z,81.80
2022-10-31T05:08:59.984Z,82.01
2022-10-31T05:11:26.624Z,81.79
2022-10-31T05:13:53.118Z,81.80
2022-10-31T05:16:19.811Z,81.67
2022-10-31T05:18:46.507Z,82.21
2022-10-31T05:21:13.053Z,82.36
2022-10-31T05:23:42.999Z,82.31
2022-10-31T05:26:12.481Z,82.31
2022-10-31T05:28:39.039Z,81.99
2022-10-31T05:31:05.615Z,82.33
2022-10-31T05:33:32.190Z,82.40
2022-10-31T05:35:58.782Z,82.16
2022-10-31T05:38:25.495Z,82.13
2022-10-31T05:44:21.395Z,81.88
2022-10-31T05:46:48.032Z,82.31
2022-10-31T05:49:14.504Z,82.72
2022-10-31T05:51:41.047Z,82.89
2022-10-31T05:54:10.758Z,82.59
2022-10-31T05:56:39.886Z,83.07
2022-10-31T05:59:06.382Z,82.76
2022-10-31T06:01:34.229Z,82.79
2022-10-31T06:04:00.769Z,82.68
2022-10-31T06:06:27.300Z,82.62
2022-10-31T06:08:53.806Z,82.82
2022-10-31T06:11:20.642Z,83.01
2022-10-31T06:13:47.390Z,82.55
2022-10-31T06:16:13.967Z,82.10
2022-10-31T06:18:42.040Z,82.40
2022-10-31T06:21:08.592Z,82.35
2022-10-31T06:23:35.200Z,82.84
2022-10-31T06:26:01.776Z,83.06
2022-10-31T06:28:28.347Z,83.31
2022-10-31T06:30:54.901Z,83.46
2022-10-31T06:33:21.374Z,83.54
2022-10-31T06:35:49.320Z,83.81
2022-10-31T06:38:15.993Z,83.64
2022-10-31T06:40:42.633Z,84.08
2022-10-31T06:43:09.128Z,83.94
2022-10-31T06:45:35.601Z,84.30
2022-10-31T06:48:18.458Z,84.72
2022-10-31T06:50:45.453Z,84.89
2022-10-31T06:53:13.998Z,85.17
2022-10-31T06:55:41.213Z,85.59
2022-10-31T06:58:10.029Z,85.62
2022-10-31T07:00:37.522Z,85.79
2022-10-31T07:03:06.314Z,85.93
2022-10-31T07:05:32.972Z,85.69
2022-10-31T07:08:01.372Z,86.35
2022-10-31T07:10:34.316Z,86.50
2022-10-31T07:13:05.517Z,86.40
2022-10-31T07:15:35.403Z,86.46
2022-10-31T07:18:03.292Z,86.45
2022-10-31T07:20:30.368Z,86.97
2022-10-31T07:22:56.920Z,86.88
2022-10-31T07:25:24.121Z,87.20
2022-10-31T07:27:52.302Z,87.41
2022-10-31T07:30:19.186Z,87.55
2022-10-31T07:32:48.305Z,87.63
2022-10-31T07:35:17.442Z,88.05
2022-10-31T07:37:44.235Z,88.20
2022-10-31T07:40:11.948Z,88.28
2022-10-31T07:42:39.351Z,88.41
2022-10-31T07:45:09.509Z,88.42
2022-10-31T07:47:39.364Z,88.49
2022-10-31T07:50:06.548Z,88.32
2022-10-31T07:52:33.094Z,88.45
2022-10-31T07:54:59.584Z,88.46
2022-10-31T07:57:27.628Z,88.51
2022-10-31T07:59:57.204Z,88.88
2022-10-31T08:02:25.504Z,88.96
2022-10-31T08:04:53.208Z,88.52
2022-10-31T08:07:22.547Z,88.66
2022-10-31T08:09:49.204Z,88.71
2022-10-31T08:12:15.790Z,88.36
2022-10-31T08:14:42.327Z,89.09
2022-10-31T08:17:08.784Z,89.47
2022-10-31T08:19:37.009Z,89.75
2022-10-31T08:22:03.703Z,90.07
2022-10-31T08:24:30.264Z,90.13
2022-10-31T08:26:56.960Z,90.11
2022-10-31T08:29:23.560Z,90.22
2022-10-31T08:31:50.133Z,90.51
2022-10-31T08:34:16.824Z,90.74
2022-10-31T08:36:44.688Z,90.74
2022-10-31T08:39:11.263Z,91.31
2022-10-31T08:41:37.899Z,91.39
2022-10-31T08:44:04.719Z,91.55
2022-10-31T08:46:31.467Z,91.66
2022-10-31T08:48:58.016Z,91.90
2022-10-31T08:51:24.773Z,92.30
2022-10-31T08:53:52.609Z,92.18
2022-10-31T08:56:19.197Z,91.89
2022-10-31T08:58:45.726Z,92.28
2022-10-31T09:01:12.429Z,92.68
2022-10-31T09:03:39.076Z,92.54
2022-10-31T09:06:06.066Z,92.82
2022-10-31T09:08:33.787Z,93.07
2022-10-31T09:11:02.361Z,93.09
2022-10-31T09:13:29.117Z,93.36
2022-10-31T09:15:57.565Z,93.46
2022-10-31T09:18:24.387Z,93.27
2022-10-31T09:20:51.522Z,93.03
2022-10-31T09:23:20.932Z,92.61
2022-10-31T09:25:50.606Z,92.55
2022-10-31T09:28:20.564Z,92.47
2022-10-31T09:30:48.320Z,92.13
2022-10-31T09:33:15.085Z,92.12
2022-10-31T09:35:42.525Z,91.98
2022-10-31T09:38:11.518Z,91.83
2022-10-31T09:40:40.920Z,91.46
2022-10-31T09:43:15.667Z,91.00
2022-10-31T09:45:52.320Z,90.80
2022-10-31T09:48:45.369Z,90.77
2022-10-31T09:51:16.478Z,91.13
2022-10-31T09:53:47.265Z,91.06
2022-10-31T09:56:16.053Z,90.60
2022-10-31T09:58:45.692Z,90.00
2022-10-31T10:01:29.516Z,90.12
2022-10-31T10:04:00.639Z,89.84
2022-10-31T10:06:30.643Z,89.51
2022-10-31T10:08:57.644Z,88.77
2022-10-31T10:11:42.387Z,88.27
2022-10-31T10:14:22.949Z,87.78
2022-10-31T10:17:04.682Z,87.39
2022-10-31T10:20:08.586Z,86.40
2022-10-31T10:22:43.855Z,86.40
2022-10-31T10:25:17.094Z,86.21
2022-10-31T10:27:52.278Z,85.61
2022-10-31T10:30:21.669Z,84.76
2022-10-31T10:32:53.286Z,84.65
2022-10-31T10:35:28.737Z,84.64
2022-10-31T10:37:59.585Z,84.61
2022-10-31T10:40:28.901Z,84.36
2022-10-31T10:43:02.434Z,84.50
2022-10-31T10:45:29.328Z,84.28
2022-10-31T10:48:11.412Z,84.27
2022-10-31T10:50:42.569Z,83.99
2022-10-31T10:53:23.867Z,83.61
2022-10-31T10:55:56.522Z,83.29
2022-10-31T10:58:23.405Z,83.39
2022-10-31T11:00:56.663Z,84.17
2022-10-31T11:03:24.806Z,83.24
2022-10-31T11:05:53.368Z,82.59
2022-10-31T11:08:27.604Z,83.06
2022-10-31T11:11:01.766Z,82.32
2022-10-31T11:13:29.208Z,82.92
2022-10-31T11:15:59.910Z,82.15
2022-10-31T11:18:30.609Z,82.46
2022-10-31T11:20:59.198Z,82.22
2022-10-31T11:23:28.160Z,81.74
2022-10-31T11:25:57.296Z,81.34
2022-10-31T11:28:24.037Z,81.48
2022-10-31T11:30:54.401Z,81.55
2022-10-31T11:33:25.761Z,81.74
2022-10-31T11:35:57.871Z,81.60
2022-10-31T11:38:41.149Z,82.04
2022-10-31T11:41:14.235Z,81.44
2022-10-31T11:43:46.846Z,81.30
2022-10-31T11:46:19.847Z,81.84
2022-10-31T11:48:50.126Z,81.98
2022-10-31T11:51:25.058Z,82.12
2022-10-31T11:53:56.867Z,82.14
2022-10-31T11:56:27.319Z,82.20
2022-10-31T11:58:57.738Z,81.92
2022-10-31T12:01:26.529Z,81.94
2022-10-31T12:04:03.051Z,82.34
2022-10-31T12:06:34.757Z,82.61
2022-10-31T12:09:01.488Z,82.43
2022-10-31T12:11:41.784Z,82.84
2022-10-31T12:14:24.205Z,83.08
2022-10-31T12:16:56.644Z,83.34
2022-10-31T12:19:35.572Z,83.23
2022-10-31T12:22:13.961Z,83.13
2022-10-31T12:24:56.707Z,83.01
2022-10-31T12:27:32.036Z,82.75
2022-10-31T12:30:11.566Z,83.01
2022-10-31T12:32:47.900Z,83.22
2022-10-31T12:35:36.364Z,83.53
2022-10-31T12:38:19.041Z,83.49
2022-10-31T12:40:59.754Z,83.94
2022-10-31T12:43:37.388Z,83.69
2022-10-31T12:46:07.752Z,83.96
2022-10-31T12:49:03.350Z,84.17
2022-10-31T12:51:41.019Z,84.08
2022-10-31T12:54:25.086Z,84.12
2022-10-31T12:57:00.704Z,84.05
2022-10-31T12:59:34.364Z,84.04
2022-10-31T13:02:07.762Z,84.14
2022-10-31T13:04:41.840Z,84.02
2022-10-31T13:07:13.072Z,84.01
2022-10-31T13:09:48.892Z,84.24
2022-10-31T13:12:20.134Z,84.27
2022-10-31T13:14:50.381Z,84.44
2022-10-31T13:17:28.741Z,84.57
2022-10-31T13:20:06.432Z,84.64
2022-10-31T13:22:33.998Z,84.77
2022-10-31T13:25:12.316Z,84.94
2022-10-31T13:27:46.991Z,85.13
2022-10-31T13:30:16.430Z,85.24
2022-10-31T13:32:47.871Z,85.57
2022-10-31T13:35:22.099Z,85.70
2022-10-31T13:37:56.592Z,85.64
2022-10-31T13:40:36.253Z,85.95
2022-10-31T13:43:11.345Z,85.94
2022-10-31T13:45:49.360Z,86.27
2022-10-31T13:48:35.162Z,86.28
2022-10-31T13:51:03.569Z,86.17
2022-10-31T13:53:43.269Z,86.18
2022-10-31T13:56:21.539Z,86.49
2022-10-31T13:59:06.407Z,86.24
2022-10-31T14:01:34.388Z,86.68
2022-10-31T14:04:13.078Z,86.54
2022-10-31T14:06:52.924Z,86.67
2022-10-31T14:09:27.518Z,86.45
2022-10-31T14:11:56.941Z,86.50
2022-10-31T14:14:30.789Z,86.71
2022-10-31T14:16:58.940Z,86.97
2022-10-31T14:19:27.522Z,86.74
2022-10-31T14:21:54.309Z,86.95
2022-10-31T14:24:36.303Z,87.15
2022-10-31T14:30:27.951Z,87.29
2022-10-31T14:32:58.810Z,87.55
2022-10-31T14:35:29.967Z,87.66
2022-10-31T14:38:13.033Z,87.68
2022-10-31T14:40:51.259Z,87.79
2022-10-31T14:43:29.075Z,88.05
2022-10-31T14:46:03.121Z,88.29
2022-10-31T14:49:00.120Z,88.65
2022-10-31T14:51:34.782Z,88.59
2022-10-31T14:54:01.855Z,88.68
2022-10-31T14:56:31.283Z,88.82
2022-10-31T14:59:01.960Z,88.67
2022-10-31T15:01:33.290Z,88.73
2022-10-31T15:06:58.798Z,88.50
2022-10-31T15:09:27.791Z,88.52
2022-10-31T15:11:54.324Z,88.52
2022-10-31T15:14:25.977Z,88.51
2022-10-31T15:16:54.905Z,88.58
2022-10-31T15:19:24.741Z,88.57
2022-10-31T15:21:53.642Z,88.63
2022-10-31T15:24:20.880Z,88.87
2022-10-31T15:26:49.833Z,89.09
2022-10-31T15:29:18.321Z,89.08
2022-10-31T15:31:52.374Z,88.89
2022-10-31T15:34:26.238Z,88.96
2022-10-31T15:36:52.945Z,89.15
2022-10-31T15:39:19.854Z,89.23
2022-10-31T15:41:54.471Z,89.20
2022-10-31T15:44:25.670Z,89.45
2022-10-31T15:46:58.155Z,89.15
2022-10-31T15:49:33.573Z,89.03
2022-10-31T15:52:07.102Z,89.17
2022-10-31T15:54:34.061Z,89.14
2022-10-31T15:57:00.676Z,89.32
2022-10-31T15:59:29.617Z,89.35
2022-10-31T16:02:02.603Z,89.37
2022-10-31T16:04:31.087Z,89.49
2022-10-31T16:07:01.187Z,89.52
2022-10-31T16:09:28.513Z,89.63
2022-10-31T16:11:57.295Z,89.65
2022-10-31T16:14:26.221Z,89.69
2022-10-31T16:16:55.181Z,89.90
2022-10-31T16:19:25.742Z,89.95
2022-10-31T16:22:02.644Z,89.88
2022-10-31T16:24:32.692Z,90.08
2022-10-31T16:27:07.165Z,90.19
2022-10-31T16:29:36.858Z,90.16
2022-10-31T16:32:04.012Z,90.24
2022-10-31T16:34:30.689Z,90.59
2022-10-31T16:36:58.581Z,90.68
2022-10-31T16:39:25.080Z,90.61
2022-10-31T16:41:55.436Z,90.87
2022-10-31T16:44:24.694Z,90.97
2022-10-31T16:47:08.949Z,91.10
2022-10-31T16:49:35.560Z,91.31
2022-10-31T16:52:03.716Z,90.99
2022-10-31T16:54:30.570Z,90.93
2022-10-31T16:56:59.247Z,91.09
2022-10-31T16:59:25.996Z,91.16
2022-10-31T17:01:55.201Z,90.87
2022-10-31T17:04:22.150Z,91.13
2022-10-31T17:06:48.784Z,91.17
2022-10-31T17:09:16.672Z,91.16
2022-10-31T17:11:49.488Z,91.28
2022-10-31T17:14:17.113Z,91.47
2022-10-31T17:16:43.733Z,91.43
2022-10-31T17:19:11.296Z,91.60
2022-10-31T17:21:38.707Z,91.39
2022-10-31T17:24:05.935Z,91.52
2022-10-31T17:26:33.946Z,91.52
2022-10-31T17:29:00.477Z,91.38
2022-10-31T17:31:29.694Z,91.67
2022-10-31T17:34:02.217Z,91.57
2022-10-31T17:36:30.298Z,91.93
2022-10-31T17:38:57.070Z,92.09
2022-10-31T17:41:23.873Z,92.02
2022-10-31T17:43:55.960Z,92.11
2022-10-31T17:46:22.859Z,92.22
2022-10-31T17:48:49.513Z,92.21
2022-10-31T17:51:16.105Z,92.32
2022-10-31T17:53:42.790Z,92.45
2022-10-31T17:56:10.260Z,92.41
2022-10-31T17:58:37.719Z,92.51
2022-10-31T18:01:09.736Z,92.52
2022-10-31T18:03:36.507Z,92.57
2022-10-31T18:06:03.301Z,92.72
2022-10-31T18:08:31.843Z,92.47
2022-10-31T18:10:58.784Z,92.26
2022-10-31T18:13:25.451Z,92.48
2022-10-31T18:15:52.019Z,92.35
2022-10-31T18:18:19.969Z,92.49
2022-10-31T18:20:47.203Z,92.46
2022-10-31T18:23:13.797Z,92.44
2022-10-31T18:25:40.374Z,92.90
2022-10-31T18:28:07.208Z,92.75
2022-10-31T18:30:34.120Z,92.80
2022-10-31T18:33:00.635Z,92.97
2022-10-31T18:35:28.652Z,92.89
2022-10-31T18:37:56.901Z,92.95
2022-10-31T18:40:25.948Z,92.97
2022-10-31T18:42:52.457Z,93.22
2022-10-31T18:45:32.505Z,92.99
2022-10-31T18:48:06.058Z,93.07
2022-10-31T18:50:33.911Z,92.89
2022-10-31T18:53:00.643Z,92.85
2022-10-31T18:55:27.533Z,92.76
2022-10-31T18:57:54.115Z,92.54
2022-10-31T19:00:20.925Z,92.63
2022-10-31T19:02:47.641Z,92.68
2022-10-31T19:05:14.129Z,92.64
2022-10-31T19:07:42.050Z,92.71
2022-10-31T19:10:09.299Z,92.70
2022-10-31T19:12:35.782Z,92.79
2022-10-31T19:15:02.465Z,93.02
2022-10-31T19:17:29.033Z,93.08
2022-10-31T19:19:55.597Z,93.06
2022-10-31T19:22:22.236Z,92.84
2022-10-31T19:24:50.357Z,93.01
2022-10-31T19:27:16.949Z,92.85
2022-10-31T19:29:43.498Z,93.13
2022-10-31T19:32:10.121Z,93.27
2022-10-31T19:34:36.671Z,93.30
2022-10-31T19:37:03.262Z,93.30
2022-10-31T19:39:29.779Z,93.29
2022-10-31T19:41:57.797Z,93.27
2022-10-31T19:44:24.414Z,93.27
2022-10-31T19:46:53.492Z,93.16
2022-10-31T19:49:20.439Z,93.37
2022-10-31T19:51:47.078Z,93.30
2022-10-31T19:54:13.900Z,93.55
2022-10-31T19:56:40.618Z,93.81
2022-10-31T19:59:08.832Z,93.89
2022-10-31T20:01:35.720Z,93.97
2022-10-31T20:04:02.357Z,94.04
2022-10-31T20:06:31.727Z,94.19
2022-10-31T20:08:58.723Z,94.43
2022-10-31T20:11:26.844Z,94.52
2022-10-31T20:13:54.814Z,94.45
2022-10-31T20:16:23.405Z,94.61
2022-10-31T20:18:50.526Z,94.57
2022-10-31T20:21:20.988Z,94.66
2022-10-31T20:23:47.883Z,94.57
2022-10-31T20:26:16.031Z,94.50
2022-10-31T20:28:43.705Z,94.77
2022-10-31T20:31:12.696Z,94.74
2022-10-31T20:33:41.163Z,94.85
2022-10-31T20:36:09.121Z,95.03
2022-10-31T20:38:38.233Z,95.06
2022-10-31T20:41:06.188Z,95.04
2022-10-31T20:43:33.659Z,95.34
2022-10-31T20:46:01.047Z,95.56
2022-10-31T20:48:28.268Z,95.39
2022-10-31T20:50:59.725Z,95.61
2022-10-31T20:53:26.855Z,95.64
2022-10-31T20:56:06.769Z,95.81
2022-10-31T20:58:34.896Z,96.04
2022-10-31T21:01:01.465Z,96.01
2022-10-31T21:03:28.053Z,96.16
2022-10-31T21:05:56.091Z,96.04
2022-10-31T21:08:25.006Z,96.11
2022-10-31T21:10:51.639Z,96.17
2022-10-31T21:13:18.213Z,96.13
2022-10-31T21:15:44.933Z,96.48
2022-10-31T21:18:12.259Z,96.24
2022-10-31T21:20:39.865Z,96.17
2022-10-31T21:23:06.636Z,96.24
2022-10-31T21:25:37.565Z,96.20
2022-10-31T21:28:04.444Z,96.27
2022-10-31T21:30:31.148Z,96.12
2022-10-31T21:32:57.689Z,96.27
2022-10-31T21:35:24.291Z,96.33
2022-10-31T21:37:50.787Z,96.27
2022-10-31T21:40:17.455Z,95.83
2022-10-31T21:42:45.281Z,96.27
2022-10-31T21:45:11.809Z,96.27
2022-10-31T21:47:38.279Z,96.28
2022-10-31T21:50:05.465Z,96.14
2022-10-31T21:52:31.994Z,96.14
2022-10-31T21:54:58.546Z,96.25
2022-10-31T21:57:25.083Z,96.05
2022-10-31T21:59:53.032Z,95.95
2022-10-31T22:02:19.683Z,96.03
2022-10-31T22:04:46.233Z,96.06
2022-10-31T22:07:12.763Z,95.69
2022-10-31T22:09:39.385Z,95.93
2022-10-31T22:12:06.238Z,95.76
2022-10-31T22:14:32.759Z,95.95
2022-10-31T22:17:00.596Z,95.80
2022-10-31T22:19:27.162Z,95.85
2022-10-31T22:21:53.681Z,95.57
2022-10-31T22:24:20.478Z,95.31
2022-10-31T22:26:47.018Z,95.35
2022-10-31T22:29:15.526Z,95.16
2022-10-31T22:31:43.680Z,95.04
2022-10-31T22:34:12.727Z,94.96
2022-10-31T22:36:39.533Z,95.08
2022-10-31T22:39:06.567Z,94.95
2022-10-31T22:41:35.297Z,94.85
2022-10-31T22:44:02.002Z,94.75
2022-10-31T22:46:31.345Z,94.93
2022-10-31T22:49:00.573Z,94.77
2022-10-31T22:51:29.693Z,94.95
2022-10-31T22:53:56.529Z,94.72
2022-10-31T22:56:25.048Z,94.90
2022-10-31T22:58:51.792Z,94.70
2022-10-31T23:01:20.776Z,94.67
2022-10-31T23:03:48.357Z,94.83
2022-10-31T23:06:16.544Z,94.77
2022-10-31T23:08:45.204Z,94.76
2022-10-31T23:11:16.621Z,94.74
2022-10-31T23:13:44.210Z,94.76
2022-10-31T23:16:12.543Z,94.70
2022-10-31T23:18:51.386Z,94.44
2022-10-31T23:21:17.858Z,94.51
2022-10-31T23:23:45.701Z,94.37
2022-10-31T23:26:12.242Z,94.15
2022-10-31T23:28:38.772Z,94.18
2022-10-31T23:31:05.244Z,94.16
2022-10-31T23:33:31.713Z,93.96
2022-10-31T23:35:58.315Z,94.27
2022-10-31T23:38:24.898Z,94.04
2022-10-31T23:40:52.723Z,93.94
2022-10-31T23:43:19.205Z,94.19
2022-10-31T23:45:45.718Z,94.06
2022-10-31T23:48:12.250Z,93.94
2022-10-31T23:50:38.989Z,93.91
2022-10-31T23:53:05.497Z,93.72
2022-10-31T23:55:32.016Z,93.54
2022-10-31T23:58:00.129Z,93.80
